MSR2181 HEGN-EDDH
Flight info
| Callsign | MSR2181 |
|---|---|
| Flight time | 4h 41m |
| Altitude | 34000 |
| Route | HGD V608 NABED T55 GINDI W8 LUBOS/N0475F300 W8 ALPID/N0473F290 DCT GESON/N0460F280 DCT LAGVI/N0472F300 Q777 IMPIP DCT AZMEY DCT RASDA M855 TOMBI UM855 AYT UN135 IMR UN128 RIKSO DCT EVIVI DCT OKANA DCT TONDO/N0464F320 DCT BEGLA DCT LOKVU DCT LALUK DCT MILGU DCT SOGMA M748 RARUP RARUP6A |
| Aircraft | B738/M-SDE2E3FGHIRWXY/LB1 |
Departure
| Time | 2026-05-07 13:22 |
|---|---|
| Airport | Hurghada International Airport (HEGN) |
Arrival
| Time | 2026-05-07 18:04 |
|---|---|
| Airport | Hamburg Helmut Schmidt Airport (EDDH) |
| Time | Latitude | Longitude | Altitude | Speed | Heading |
|---|---|---|---|---|---|
| 2026-05-07 13:06 | 27.18010 | 33.80387 | 57 ft | 0 kts | 255° |
| 2026-05-07 13:12 | 27.18015 | 33.80408 | 57 ft | 4 kts | 250° |
| 2026-05-07 13:12 | 27.18026 | 33.80436 | 52 ft | 4 kts | 238° |
| 2026-05-07 13:13 | 27.18043 | 33.80458 | 50 ft | 4 kts | 205° |
| 2026-05-07 13:13 | 27.18058 | 33.80461 | 53 ft | 0 kts | 165° |
| 2026-05-07 13:16 | 27.18037 | 33.80468 | 49 ft | 7 kts | 165° |
| 2026-05-07 13:16 | 27.17969 | 33.80488 | 53 ft | 14 kts | 165° |
| 2026-05-07 13:16 | 27.17859 | 33.80521 | 57 ft | 18 kts | 165° |
| 2026-05-07 13:16 | 27.17741 | 33.80556 | 53 ft | 17 kts | 165° |
| 2026-05-07 13:17 | 27.17629 | 33.80590 | 53 ft | 16 kts | 165° |
| 2026-05-07 13:17 | 27.17519 | 33.80622 | 54 ft | 16 kts | 165° |
| 2026-05-07 13:17 | 27.17416 | 33.80653 | 53 ft | 15 kts | 165° |
| 2026-05-07 13:17 | 27.17315 | 33.80683 | 51 ft | 15 kts | 165° |
| 2026-05-07 13:18 | 27.17220 | 33.80712 | 53 ft | 14 kts | 165° |
| 2026-05-07 13:18 | 27.17127 | 33.80739 | 50 ft | 13 kts | 170° |
| 2026-05-07 13:18 | 27.17061 | 33.80686 | 55 ft | 13 kts | 250° |
| 2026-05-07 13:18 | 27.17036 | 33.80591 | 53 ft | 13 kts | 255° |
| 2026-05-07 13:19 | 27.16961 | 33.80537 | 51 ft | 15 kts | 171° |
| 2026-05-07 13:19 | 27.16864 | 33.80564 | 46 ft | 15 kts | 165° |
| 2026-05-07 13:19 | 27.16748 | 33.80599 | 46 ft | 20 kts | 165° |
| 2026-05-07 13:19 | 27.16602 | 33.80642 | 47 ft | 22 kts | 165° |
| 2026-05-07 13:20 | 27.16460 | 33.80684 | 45 ft | 18 kts | 165° |
| 2026-05-07 13:20 | 27.16343 | 33.80718 | 44 ft | 17 kts | 165° |
| 2026-05-07 13:20 | 27.16232 | 33.80751 | 42 ft | 15 kts | 165° |
| 2026-05-07 13:20 | 27.16153 | 33.80741 | 38 ft | 10 kts | 239° |
| 2026-05-07 13:21 | 27.16133 | 33.80666 | 39 ft | 10 kts | 259° |
| 2026-05-07 13:21 | 27.16157 | 33.80602 | 42 ft | 10 kts | 332° |
| 2026-05-07 13:21 | 27.16220 | 33.80581 | 42 ft | 9 kts | 345° |
| 2026-05-07 13:21 | 27.16298 | 33.80558 | 40 ft | 22 kts | 345° |
| 2026-05-07 13:22 | 27.16672 | 33.80450 | 46 ft | 91 kts | 345° |
| 2026-05-07 13:22 | 27.17514 | 33.80203 | 56 ft | 154 kts | 346° |
| 2026-05-07 13:22 | 27.18639 | 33.79846 | 532 ft | 180 kts | 345° |
| 2026-05-07 13:22 | 27.19842 | 33.79460 | 1673 ft | 168 kts | 343° |
| 2026-05-07 13:23 | 27.20944 | 33.79106 | 2509 ft | 171 kts | 342° |
| 2026-05-07 13:23 | 27.22192 | 33.78706 | 2764 ft | 198 kts | 342° |
| 2026-05-07 13:23 | 27.23595 | 33.78251 | 2955 ft | 218 kts | 342° |
| 2026-05-07 13:23 | 27.25101 | 33.77759 | 3154 ft | 237 kts | 342° |
| 2026-05-07 13:24 | 27.26746 | 33.77219 | 3503 ft | 253 kts | 342° |
| 2026-05-07 13:24 | 27.28453 | 33.76658 | 4253 ft | 255 kts | 341° |
| 2026-05-07 13:24 | 27.30158 | 33.76095 | 4939 ft | 262 kts | 341° |
| 2026-05-07 13:24 | 27.31937 | 33.75505 | 5569 ft | 268 kts | 341° |
| 2026-05-07 13:25 | 27.33737 | 33.74910 | 6297 ft | 269 kts | 343° |
| 2026-05-07 13:25 | 27.35590 | 33.74577 | 6889 ft | 276 kts | 353° |
| 2026-05-07 13:25 | 27.37535 | 33.74463 | 7542 ft | 280 kts | 355° |
| 2026-05-07 13:25 | 27.39473 | 33.74385 | 8157 ft | 284 kts | 355° |
| 2026-05-07 13:26 | 27.41463 | 33.74299 | 8801 ft | 287 kts | 355° |
| 2026-05-07 13:26 | 27.42803 | 33.74234 | 9226 ft | 290 kts | 355° |
| 2026-05-07 13:26 | 27.45504 | 33.74087 | 10044 ft | 295 kts | 354° |
| 2026-05-07 13:26 | 27.46882 | 33.74006 | 10340 ft | 303 kts | 355° |
| 2026-05-07 13:27 | 27.49815 | 33.73826 | 10526 ft | 330 kts | 354° |
| 2026-05-07 13:27 | 27.51378 | 33.73728 | 10622 ft | 343 kts | 355° |
| 2026-05-07 13:27 | 27.54625 | 33.73506 | 11024 ft | 358 kts | 351° |
| 2026-05-07 13:27 | 27.56235 | 33.73068 | 11349 ft | 358 kts | 335° |
| 2026-05-07 13:28 | 27.58317 | 33.71567 | 11981 ft | 354 kts | 314° |
| 2026-05-07 13:28 | 27.59786 | 33.69353 | 12607 ft | 353 kts | 296° |
| 2026-05-07 13:28 | 27.60562 | 33.66754 | 13182 ft | 355 kts | 283° |
| 2026-05-07 13:28 | 27.61118 | 33.64018 | 13733 ft | 358 kts | 282° |
| 2026-05-07 13:29 | 27.61636 | 33.61242 | 14230 ft | 361 kts | 281° |
| 2026-05-07 13:29 | 27.62141 | 33.58475 | 14784 ft | 363 kts | 281° |
| 2026-05-07 13:29 | 27.62658 | 33.55666 | 15322 ft | 365 kts | 281° |
| 2026-05-07 13:29 | 27.63177 | 33.52886 | 15842 ft | 368 kts | 282° |
| 2026-05-07 13:30 | 27.63714 | 33.50051 | 16380 ft | 370 kts | 282° |
| 2026-05-07 13:30 | 27.64259 | 33.47193 | 16920 ft | 372 kts | 282° |
| 2026-05-07 13:30 | 27.64805 | 33.44344 | 17435 ft | 375 kts | 282° |
| 2026-05-07 13:30 | 27.65356 | 33.41478 | 17962 ft | 377 kts | 282° |
| 2026-05-07 13:31 | 27.65916 | 33.38569 | 18440 ft | 380 kts | 282° |
| 2026-05-07 13:31 | 27.66481 | 33.35634 | 18885 ft | 383 kts | 282° |
| 2026-05-07 13:31 | 27.67049 | 33.32681 | 19325 ft | 385 kts | 282° |
| 2026-05-07 13:31 | 27.67614 | 33.29747 | 19785 ft | 387 kts | 282° |
| 2026-05-07 13:32 | 27.68183 | 33.26785 | 20226 ft | 390 kts | 282° |
| 2026-05-07 13:32 | 27.68760 | 33.23775 | 20660 ft | 393 kts | 282° |
| 2026-05-07 13:32 | 27.69341 | 33.20744 | 21093 ft | 395 kts | 282° |
| 2026-05-07 13:32 | 27.69918 | 33.17725 | 21531 ft | 397 kts | 282° |
| 2026-05-07 13:33 | 27.70507 | 33.14646 | 21947 ft | 400 kts | 282° |
| 2026-05-07 13:33 | 27.71087 | 33.11604 | 22343 ft | 402 kts | 282° |
| 2026-05-07 13:33 | 27.71682 | 33.08485 | 22755 ft | 404 kts | 282° |
| 2026-05-07 13:33 | 27.72270 | 33.05398 | 23145 ft | 407 kts | 282° |
| 2026-05-07 13:34 | 27.72870 | 33.02240 | 23538 ft | 410 kts | 282° |
| 2026-05-07 13:34 | 27.74065 | 32.95940 | 24214 ft | 414 kts | 282° |
| 2026-05-07 13:34 | 27.74664 | 32.92779 | 24558 ft | 415 kts | 282° |
| 2026-05-07 13:35 | 27.75271 | 32.89569 | 24905 ft | 417 kts | 282° |
| 2026-05-07 13:35 | 27.75869 | 32.86399 | 25242 ft | 418 kts | 282° |
| 2026-05-07 13:35 | 27.76482 | 32.83151 | 25549 ft | 420 kts | 282° |
| 2026-05-07 13:35 | 27.77090 | 32.79923 | 25819 ft | 423 kts | 283° |
| 2026-05-07 13:36 | 27.77704 | 32.76658 | 26143 ft | 424 kts | 283° |
| 2026-05-07 13:36 | 27.78313 | 32.73416 | 26437 ft | 426 kts | 283° |
| 2026-05-07 13:36 | 27.78933 | 32.70109 | 26711 ft | 429 kts | 283° |
| 2026-05-07 13:36 | 27.79546 | 32.66838 | 26981 ft | 431 kts | 283° |
| 2026-05-07 13:37 | 27.80169 | 32.63508 | 27256 ft | 433 kts | 283° |
| 2026-05-07 13:37 | 27.80787 | 32.60200 | 27523 ft | 434 kts | 283° |
| 2026-05-07 13:37 | 27.81413 | 32.56846 | 27789 ft | 436 kts | 283° |
| 2026-05-07 13:37 | 27.82043 | 32.53463 | 28055 ft | 438 kts | 283° |
| 2026-05-07 13:38 | 27.82666 | 32.50114 | 28315 ft | 440 kts | 283° |
| 2026-05-07 13:38 | 27.83291 | 32.46749 | 28563 ft | 442 kts | 283° |
| 2026-05-07 13:38 | 27.83927 | 32.43318 | 28813 ft | 444 kts | 283° |
| 2026-05-07 13:38 | 27.84556 | 32.39927 | 29045 ft | 445 kts | 283° |
| 2026-05-07 13:39 | 27.85193 | 32.36484 | 29281 ft | 447 kts | 283° |
| 2026-05-07 13:39 | 27.85831 | 32.33026 | 29526 ft | 449 kts | 283° |
| 2026-05-07 13:39 | 27.86465 | 32.29587 | 29767 ft | 450 kts | 283° |
| 2026-05-07 13:39 | 27.87108 | 32.26095 | 30013 ft | 451 kts | 283° |
| 2026-05-07 13:40 | 27.87743 | 32.22645 | 30222 ft | 453 kts | 283° |
| 2026-05-07 13:40 | 27.88384 | 32.19149 | 30434 ft | 453 kts | 283° |
| 2026-05-07 13:40 | 27.89025 | 32.15652 | 30653 ft | 454 kts | 283° |
| 2026-05-07 13:40 | 27.89661 | 32.12176 | 30891 ft | 453 kts | 283° |
| 2026-05-07 13:41 | 27.90302 | 32.08668 | 31203 ft | 451 kts | 283° |
| 2026-05-07 13:41 | 27.90928 | 32.05237 | 31506 ft | 449 kts | 283° |
| 2026-05-07 13:41 | 27.91558 | 32.01778 | 31779 ft | 448 kts | 283° |
| 2026-05-07 13:41 | 27.92191 | 31.98303 | 32029 ft | 448 kts | 283° |
| 2026-05-07 13:42 | 27.92810 | 31.94894 | 32281 ft | 447 kts | 283° |
| 2026-05-07 13:42 | 27.93438 | 31.91436 | 32549 ft | 445 kts | 284° |
| 2026-05-07 13:42 | 27.94061 | 31.87993 | 32807 ft | 444 kts | 284° |
| 2026-05-07 13:42 | 27.94673 | 31.84612 | 33052 ft | 443 kts | 284° |
| 2026-05-07 13:43 | 27.95292 | 31.81183 | 33298 ft | 442 kts | 284° |
| 2026-05-07 13:43 | 27.95899 | 31.77817 | 33537 ft | 441 kts | 284° |
| 2026-05-07 13:43 | 27.96516 | 31.74390 | 33789 ft | 440 kts | 284° |
| 2026-05-07 13:43 | 27.97119 | 31.71035 | 34021 ft | 439 kts | 284° |
| 2026-05-07 13:44 | 27.97732 | 31.67628 | 34019 ft | 441 kts | 284° |
| 2026-05-07 13:44 | 27.98947 | 31.60842 | 34030 ft | 440 kts | 284° |
| 2026-05-07 13:45 | 28.00152 | 31.54091 | 34044 ft | 437 kts | 285° |
| 2026-05-07 13:45 | 28.01348 | 31.47375 | 34053 ft | 435 kts | 285° |
| 2026-05-07 13:46 | 28.02534 | 31.40697 | 34057 ft | 433 kts | 285° |
| 2026-05-07 13:46 | 28.03724 | 31.33981 | 34058 ft | 433 kts | 285° |
| 2026-05-07 13:47 | 28.04901 | 31.27315 | 34060 ft | 433 kts | 285° |
| 2026-05-07 13:47 | 28.05612 | 31.24025 | 34038 ft | 428 kts | 296° |
| 2026-05-07 13:47 | 28.07050 | 31.21114 | 34076 ft | 420 kts | 311° |
| 2026-05-07 13:47 | 28.09071 | 31.18792 | 34061 ft | 416 kts | 324° |
| 2026-05-07 13:48 | 28.11563 | 31.17092 | 34058 ft | 416 kts | 336° |
| 2026-05-07 13:48 | 28.14275 | 31.16063 | 34070 ft | 417 kts | 347° |
| 2026-05-07 13:48 | 28.17186 | 31.15790 | 34060 ft | 421 kts | 0° |
| 2026-05-07 13:49 | 28.23027 | 31.16403 | 34058 ft | 424 kts | 3° |
| 2026-05-07 13:49 | 28.28893 | 31.17156 | 34050 ft | 426 kts | 3° |
| 2026-05-07 13:50 | 28.34824 | 31.17862 | 34060 ft | 427 kts | 3° |
| 2026-05-07 13:50 | 28.40735 | 31.18529 | 34057 ft | 427 kts | 2° |
| 2026-05-07 13:51 | 28.46617 | 31.19183 | 34053 ft | 428 kts | 2° |
| 2026-05-07 13:51 | 28.52575 | 31.19848 | 34052 ft | 428 kts | 2° |
| 2026-05-07 13:52 | 28.58490 | 31.20509 | 34051 ft | 428 kts | 2° |
| 2026-05-07 13:52 | 28.64409 | 31.21173 | 34052 ft | 428 kts | 2° |
| 2026-05-07 13:53 | 28.70327 | 31.21837 | 34056 ft | 428 kts | 3° |
| 2026-05-07 13:53 | 28.76236 | 31.22539 | 34051 ft | 428 kts | 3° |
| 2026-05-07 13:54 | 28.82135 | 31.23261 | 34051 ft | 428 kts | 3° |
| 2026-05-07 13:54 | 28.88064 | 31.23983 | 34050 ft | 428 kts | 3° |
| 2026-05-07 13:55 | 28.93972 | 31.24701 | 34042 ft | 428 kts | 3° |
| 2026-05-07 13:55 | 28.99880 | 31.25418 | 34051 ft | 428 kts | 3° |
| 2026-05-07 13:56 | 29.05800 | 31.26138 | 34048 ft | 428 kts | 3° |
| 2026-05-07 13:56 | 29.11725 | 31.26859 | 34050 ft | 429 kts | 3° |
| 2026-05-07 13:57 | 29.17665 | 31.27582 | 34051 ft | 430 kts | 3° |
| 2026-05-07 13:57 | 29.23638 | 31.28311 | 34048 ft | 430 kts | 3° |
| 2026-05-07 13:58 | 29.29589 | 31.29038 | 34048 ft | 431 kts | 3° |
| 2026-05-07 13:58 | 29.35557 | 31.29769 | 34046 ft | 431 kts | 4° |
| 2026-05-07 13:59 | 29.41382 | 31.31518 | 34050 ft | 438 kts | 19° |
| 2026-05-07 13:59 | 29.46742 | 31.34911 | 34052 ft | 443 kts | 27° |
| 2026-05-07 14:00 | 29.51975 | 31.38628 | 34056 ft | 444 kts | 27° |
| 2026-05-07 14:00 | 29.57226 | 31.42330 | 34050 ft | 444 kts | 27° |
| 2026-05-07 14:01 | 29.62505 | 31.46017 | 34047 ft | 444 kts | 27° |
| 2026-05-07 14:01 | 29.67801 | 31.49709 | 34053 ft | 445 kts | 27° |
| 2026-05-07 14:02 | 29.73097 | 31.53406 | 34050 ft | 446 kts | 27° |
| 2026-05-07 14:02 | 29.78378 | 31.57100 | 34059 ft | 446 kts | 27° |
| 2026-05-07 14:03 | 29.83691 | 31.60821 | 34056 ft | 447 kts | 27° |
| 2026-05-07 14:03 | 29.89056 | 31.64362 | 34045 ft | 443 kts | 17° |
| 2026-05-07 14:03 | 29.92002 | 31.65323 | 34086 ft | 436 kts | 6° |
| 2026-05-07 14:04 | 29.94986 | 31.65643 | 34066 ft | 433 kts | 356° |
| 2026-05-07 14:04 | 30.00918 | 31.64747 | 34066 ft | 431 kts | 348° |
| 2026-05-07 14:05 | 30.06833 | 31.63605 | 34071 ft | 432 kts | 349° |
| 2026-05-07 14:05 | 30.12752 | 31.62501 | 34049 ft | 432 kts | 349° |
| 2026-05-07 14:06 | 30.18721 | 31.61418 | 34050 ft | 432 kts | 349° |
| 2026-05-07 14:06 | 30.24642 | 31.60353 | 34049 ft | 432 kts | 349° |
| 2026-05-07 14:07 | 30.30572 | 31.59286 | 34053 ft | 431 kts | 349° |
| 2026-05-07 14:07 | 30.36506 | 31.58216 | 34051 ft | 431 kts | 349° |
| 2026-05-07 14:08 | 30.42450 | 31.57142 | 34056 ft | 430 kts | 349° |
| 2026-05-07 14:08 | 30.48342 | 31.56076 | 34060 ft | 430 kts | 349° |
| 2026-05-07 14:09 | 30.54220 | 31.55012 | 34061 ft | 429 kts | 349° |
| 2026-05-07 14:09 | 30.60111 | 31.53943 | 34063 ft | 429 kts | 349° |
| 2026-05-07 14:10 | 30.66005 | 31.52873 | 34064 ft | 429 kts | 349° |
| 2026-05-07 14:10 | 30.71921 | 31.51797 | 34068 ft | 428 kts | 349° |
| 2026-05-07 14:11 | 30.77789 | 31.50730 | 34077 ft | 428 kts | 349° |
| 2026-05-07 14:11 | 30.83665 | 31.49663 | 34080 ft | 428 kts | 349° |
| 2026-05-07 14:12 | 30.89556 | 31.48593 | 34080 ft | 428 kts | 349° |
| 2026-05-07 14:12 | 30.95417 | 31.47526 | 34086 ft | 428 kts | 349° |
| 2026-05-07 14:13 | 31.01294 | 31.46455 | 34085 ft | 428 kts | 349° |
| 2026-05-07 14:13 | 31.07209 | 31.45375 | 34092 ft | 428 kts | 349° |
| 2026-05-07 14:14 | 31.13081 | 31.44302 | 34093 ft | 427 kts | 349° |
| 2026-05-07 14:14 | 31.18956 | 31.43226 | 34098 ft | 427 kts | 349° |
| 2026-05-07 14:15 | 31.24786 | 31.42158 | 34103 ft | 427 kts | 349° |
| 2026-05-07 14:15 | 31.30669 | 31.41065 | 34102 ft | 426 kts | 349° |
| 2026-05-07 14:16 | 31.36513 | 31.39967 | 34105 ft | 426 kts | 349° |
| 2026-05-07 14:16 | 31.42363 | 31.38869 | 34106 ft | 425 kts | 349° |
| 2026-05-07 14:17 | 31.48158 | 31.37781 | 34108 ft | 424 kts | 349° |
| 2026-05-07 14:17 | 31.54011 | 31.36681 | 34110 ft | 424 kts | 349° |
| 2026-05-07 14:18 | 31.59850 | 31.35853 | 34115 ft | 424 kts | 353° |
| 2026-05-07 14:18 | 31.65734 | 31.35306 | 34117 ft | 424 kts | 354° |
| 2026-05-07 14:19 | 31.71609 | 31.34743 | 34119 ft | 423 kts | 353° |
| 2026-05-07 14:19 | 31.77461 | 31.34145 | 34118 ft | 423 kts | 353° |
| 2026-05-07 14:20 | 31.83291 | 31.33542 | 34116 ft | 422 kts | 353° |
| 2026-05-07 14:20 | 31.89137 | 31.32937 | 34112 ft | 422 kts | 353° |
| 2026-05-07 14:21 | 31.94973 | 31.32326 | 34115 ft | 422 kts | 353° |
| 2026-05-07 14:21 | 32.00814 | 31.31713 | 34115 ft | 421 kts | 353° |
| 2026-05-07 14:22 | 32.06640 | 31.31102 | 34120 ft | 421 kts | 353° |
| 2026-05-07 14:22 | 32.12498 | 31.30491 | 34152 ft | 423 kts | 353° |
| 2026-05-07 14:22 | 32.15412 | 31.30187 | 34318 ft | 422 kts | 353° |
| 2026-05-07 14:23 | 32.18353 | 31.29879 | 34570 ft | 420 kts | 353° |
| 2026-05-07 14:23 | 32.21241 | 31.29570 | 34771 ft | 419 kts | 353° |
| 2026-05-07 14:23 | 32.24168 | 31.29253 | 34905 ft | 420 kts | 353° |
| 2026-05-07 14:23 | 32.27048 | 31.28940 | 35044 ft | 420 kts | 353° |
| 2026-05-07 14:24 | 32.29969 | 31.28622 | 35229 ft | 419 kts | 353° |
| 2026-05-07 14:24 | 32.32846 | 31.28310 | 35405 ft | 418 kts | 353° |
| 2026-05-07 14:24 | 32.35759 | 31.27994 | 35557 ft | 418 kts | 353° |
| 2026-05-07 14:24 | 32.38681 | 31.27678 | 35714 ft | 418 kts | 353° |
| 2026-05-07 14:25 | 32.41556 | 31.27366 | 35900 ft | 417 kts | 352° |
| 2026-05-07 14:25 | 32.44432 | 31.27054 | 36101 ft | 415 kts | 352° |
| 2026-05-07 14:25 | 32.47292 | 31.26743 | 36096 ft | 416 kts | 352° |
| 2026-05-07 14:26 | 32.53046 | 31.26118 | 36110 ft | 412 kts | 352° |
| 2026-05-07 14:26 | 32.57704 | 31.25244 | 36122 ft | 406 kts | 343° |
| 2026-05-07 14:27 | 32.62893 | 31.22723 | 36137 ft | 404 kts | 333° |
| 2026-05-07 14:27 | 32.67963 | 31.19715 | 36140 ft | 409 kts | 333° |
| 2026-05-07 14:28 | 32.73092 | 31.16687 | 36135 ft | 414 kts | 333° |
| 2026-05-07 14:28 | 32.78269 | 31.13651 | 36123 ft | 416 kts | 333° |
| 2026-05-07 14:29 | 32.83468 | 31.10606 | 36124 ft | 417 kts | 333° |
| 2026-05-07 14:29 | 32.88678 | 31.07551 | 36129 ft | 417 kts | 333° |
| 2026-05-07 14:30 | 32.93863 | 31.04506 | 36122 ft | 416 kts | 333° |
| 2026-05-07 14:30 | 32.99027 | 31.01469 | 36130 ft | 414 kts | 333° |
| 2026-05-07 14:31 | 33.04173 | 30.98438 | 36127 ft | 413 kts | 333° |
| 2026-05-07 14:31 | 33.09442 | 30.95784 | 36136 ft | 412 kts | 343° |
| 2026-05-07 14:32 | 33.15086 | 30.94718 | 36131 ft | 414 kts | 355° |
| 2026-05-07 14:32 | 33.20837 | 30.94529 | 36134 ft | 414 kts | 355° |
| 2026-05-07 14:33 | 33.26615 | 30.94360 | 36129 ft | 413 kts | 355° |
| 2026-05-07 14:33 | 33.32349 | 30.94164 | 36132 ft | 413 kts | 355° |
| 2026-05-07 14:34 | 33.38077 | 30.93954 | 36132 ft | 413 kts | 355° |
| 2026-05-07 14:34 | 33.43821 | 30.93739 | 36137 ft | 413 kts | 355° |
| 2026-05-07 14:35 | 33.49567 | 30.93523 | 36135 ft | 414 kts | 355° |
| 2026-05-07 14:35 | 33.55386 | 30.93303 | 35948 ft | 425 kts | 1° |
| 2026-05-07 14:36 | 33.61384 | 30.93082 | 35821 ft | 433 kts | 1° |
| 2026-05-07 14:36 | 33.67436 | 30.92855 | 35754 ft | 438 kts | 1° |
| 2026-05-07 14:37 | 33.73502 | 30.92625 | 35750 ft | 440 kts | 1° |
| 2026-05-07 14:37 | 33.82719 | 30.92276 | 35747 ft | 441 kts | 1° |
| 2026-05-07 14:38 | 33.88846 | 30.92044 | 35747 ft | 441 kts | 1° |
| 2026-05-07 14:38 | 33.94973 | 30.91812 | 35747 ft | 441 kts | 1° |
| 2026-05-07 14:39 | 34.01098 | 30.91508 | 35747 ft | 441 kts | 0° |
| 2026-05-07 14:39 | 34.07217 | 30.91152 | 35747 ft | 440 kts | 0° |
| 2026-05-07 14:40 | 34.13317 | 30.90807 | 35747 ft | 440 kts | 0° |
| 2026-05-07 14:40 | 34.19417 | 30.90470 | 35747 ft | 439 kts | 1° |
| 2026-05-07 14:41 | 34.25548 | 30.90133 | 35748 ft | 439 kts | 1° |
| 2026-05-07 14:41 | 34.31641 | 30.89822 | 35746 ft | 438 kts | 1° |
| 2026-05-07 14:42 | 34.37698 | 30.89520 | 35748 ft | 438 kts | 1° |
| 2026-05-07 14:42 | 34.43788 | 30.89212 | 35748 ft | 438 kts | 1° |
| 2026-05-07 14:43 | 34.49885 | 30.88902 | 35748 ft | 438 kts | 1° |
| 2026-05-07 14:43 | 34.55974 | 30.88592 | 35748 ft | 438 kts | 1° |
| 2026-05-07 14:44 | 34.62052 | 30.88283 | 35748 ft | 438 kts | 1° |
| 2026-05-07 14:44 | 34.68124 | 30.88063 | 35746 ft | 437 kts | 2° |
| 2026-05-07 14:45 | 34.74196 | 30.87889 | 35748 ft | 437 kts | 2° |
| 2026-05-07 14:45 | 34.80272 | 30.87706 | 35746 ft | 437 kts | 2° |
| 2026-05-07 14:46 | 34.86385 | 30.87512 | 35745 ft | 437 kts | 2° |
| 2026-05-07 14:46 | 34.92455 | 30.87318 | 35809 ft | 438 kts | 358° |
| 2026-05-07 14:47 | 34.98563 | 30.87121 | 35962 ft | 441 kts | 358° |
| 2026-05-07 14:47 | 35.04715 | 30.86922 | 36003 ft | 445 kts | 358° |
| 2026-05-07 14:48 | 35.10969 | 30.86720 | 36011 ft | 451 kts | 358° |
| 2026-05-07 14:48 | 35.17232 | 30.86518 | 36010 ft | 456 kts | 358° |
| 2026-05-07 14:49 | 35.23627 | 30.86305 | 36011 ft | 460 kts | 358° |
| 2026-05-07 14:49 | 35.30058 | 30.86084 | 36008 ft | 464 kts | 358° |
| 2026-05-07 14:50 | 35.36531 | 30.85862 | 36007 ft | 467 kts | 358° |
| 2026-05-07 14:50 | 35.43038 | 30.85640 | 35999 ft | 468 kts | 358° |
| 2026-05-07 14:51 | 35.49544 | 30.85417 | 36001 ft | 469 kts | 358° |
| 2026-05-07 14:51 | 35.56074 | 30.85193 | 36000 ft | 469 kts | 358° |
| 2026-05-07 14:52 | 35.62592 | 30.84966 | 35999 ft | 468 kts | 358° |
| 2026-05-07 14:52 | 35.69084 | 30.84595 | 36001 ft | 468 kts | 356° |
| 2026-05-07 14:53 | 35.75561 | 30.84167 | 35999 ft | 467 kts | 356° |
| 2026-05-07 14:53 | 35.82051 | 30.83755 | 35998 ft | 466 kts | 357° |
| 2026-05-07 14:54 | 35.88511 | 30.83358 | 36000 ft | 466 kts | 357° |
| 2026-05-07 14:54 | 35.94976 | 30.82962 | 36002 ft | 465 kts | 357° |
| 2026-05-07 14:55 | 36.01476 | 30.82562 | 36002 ft | 465 kts | 357° |
| 2026-05-07 14:55 | 36.07906 | 30.82224 | 36001 ft | 465 kts | 358° |
| 2026-05-07 14:56 | 36.14354 | 30.82042 | 36002 ft | 465 kts | 358° |
| 2026-05-07 14:56 | 36.20818 | 30.81863 | 36001 ft | 465 kts | 358° |
| 2026-05-07 14:57 | 36.27280 | 30.81662 | 35999 ft | 464 kts | 358° |
| 2026-05-07 14:57 | 36.33735 | 30.81453 | 36001 ft | 464 kts | 358° |
| 2026-05-07 14:58 | 36.40203 | 30.81245 | 36002 ft | 464 kts | 358° |
| 2026-05-07 14:58 | 36.46661 | 30.81027 | 36002 ft | 464 kts | 358° |
| 2026-05-07 14:59 | 36.53100 | 30.80795 | 36001 ft | 464 kts | 358° |
| 2026-05-07 14:59 | 36.59553 | 30.80563 | 36001 ft | 464 kts | 358° |
| 2026-05-07 15:00 | 36.66024 | 30.80332 | 36001 ft | 465 kts | 358° |
| 2026-05-07 15:00 | 36.72486 | 30.80102 | 36001 ft | 465 kts | 358° |
| 2026-05-07 15:01 | 36.78935 | 30.79872 | 36004 ft | 465 kts | 358° |
| 2026-05-07 15:01 | 36.85386 | 30.79639 | 36001 ft | 465 kts | 357° |
| 2026-05-07 15:02 | 36.88589 | 30.78970 | 35984 ft | 463 kts | 339° |
| 2026-05-07 15:02 | 36.91448 | 30.77138 | 36002 ft | 462 kts | 323° |
| 2026-05-07 15:02 | 36.93803 | 30.74477 | 36008 ft | 461 kts | 309° |
| 2026-05-07 15:02 | 36.95546 | 30.71095 | 36011 ft | 460 kts | 296° |
| 2026-05-07 15:03 | 36.98314 | 30.63910 | 36007 ft | 462 kts | 295° |
| 2026-05-07 15:03 | 37.01060 | 30.56639 | 35999 ft | 464 kts | 295° |
| 2026-05-07 15:04 | 37.03868 | 30.49354 | 35999 ft | 466 kts | 296° |
| 2026-05-07 15:04 | 37.06723 | 30.42022 | 35995 ft | 468 kts | 296° |
| 2026-05-07 15:05 | 37.09575 | 30.34690 | 36000 ft | 469 kts | 296° |
| 2026-05-07 15:05 | 37.12420 | 30.27354 | 36000 ft | 471 kts | 296° |
| 2026-05-07 15:06 | 37.15276 | 30.19968 | 36000 ft | 471 kts | 296° |
| 2026-05-07 15:06 | 37.18129 | 30.12571 | 35995 ft | 473 kts | 295° |
| 2026-05-07 15:07 | 37.20994 | 30.05126 | 36005 ft | 474 kts | 295° |
| 2026-05-07 15:07 | 37.23878 | 29.97665 | 36000 ft | 475 kts | 296° |
| 2026-05-07 15:08 | 37.26911 | 29.90289 | 36008 ft | 475 kts | 297° |
| 2026-05-07 15:08 | 37.29957 | 29.82935 | 35997 ft | 475 kts | 297° |
| 2026-05-07 15:09 | 37.32968 | 29.75575 | 35996 ft | 474 kts | 297° |
| 2026-05-07 15:09 | 37.35931 | 29.68190 | 35996 ft | 474 kts | 296° |
| 2026-05-07 15:10 | 37.38787 | 29.60725 | 35994 ft | 474 kts | 295° |
| 2026-05-07 15:10 | 37.41642 | 29.53248 | 36001 ft | 474 kts | 295° |
| 2026-05-07 15:11 | 37.44500 | 29.45798 | 36007 ft | 472 kts | 295° |
| 2026-05-07 15:11 | 37.47342 | 29.38313 | 35992 ft | 471 kts | 295° |
| 2026-05-07 15:12 | 37.50091 | 29.30855 | 35999 ft | 470 kts | 295° |
| 2026-05-07 15:12 | 37.52824 | 29.23403 | 35986 ft | 470 kts | 295° |
| 2026-05-07 15:13 | 37.55569 | 29.15924 | 35999 ft | 471 kts | 295° |
| 2026-05-07 15:13 | 37.58322 | 29.08420 | 36002 ft | 471 kts | 295° |
| 2026-05-07 15:14 | 37.61067 | 29.00921 | 36001 ft | 471 kts | 295° |
| 2026-05-07 15:14 | 37.63794 | 28.93450 | 35997 ft | 470 kts | 294° |
| 2026-05-07 15:15 | 37.66524 | 28.85952 | 35999 ft | 470 kts | 294° |
| 2026-05-07 15:15 | 37.69253 | 28.78439 | 36005 ft | 469 kts | 294° |
| 2026-05-07 15:16 | 37.71967 | 28.70949 | 36002 ft | 468 kts | 294° |
| 2026-05-07 15:16 | 37.74640 | 28.63471 | 36009 ft | 470 kts | 294° |
| 2026-05-07 15:17 | 37.77310 | 28.55904 | 36002 ft | 472 kts | 294° |
| 2026-05-07 15:17 | 37.79978 | 28.48328 | 35985 ft | 474 kts | 294° |
| 2026-05-07 15:18 | 37.82655 | 28.40724 | 36009 ft | 475 kts | 294° |
| 2026-05-07 15:18 | 37.85320 | 28.33135 | 35994 ft | 469 kts | 294° |
| 2026-05-07 15:19 | 37.87965 | 28.25584 | 35998 ft | 467 kts | 294° |
| 2026-05-07 15:19 | 37.90580 | 28.18099 | 36001 ft | 467 kts | 294° |
| 2026-05-07 15:20 | 37.93204 | 28.10571 | 35993 ft | 469 kts | 294° |
| 2026-05-07 15:20 | 37.95840 | 28.02987 | 35993 ft | 471 kts | 294° |
| 2026-05-07 15:21 | 37.98486 | 27.95358 | 35996 ft | 473 kts | 294° |
| 2026-05-07 15:21 | 38.01218 | 27.87783 | 36000 ft | 475 kts | 297° |
| 2026-05-07 15:22 | 38.04329 | 27.80382 | 36005 ft | 476 kts | 295° |
| 2026-05-07 15:22 | 38.07008 | 27.72722 | 36002 ft | 474 kts | 292° |
| 2026-05-07 15:23 | 38.09556 | 27.65075 | 35989 ft | 468 kts | 293° |
| 2026-05-07 15:23 | 38.12141 | 27.57524 | 36008 ft | 468 kts | 294° |
| 2026-05-07 15:24 | 38.14325 | 27.51214 | 36000 ft | 468 kts | 294° |
| 2026-05-07 15:24 | 38.16936 | 27.43643 | 35999 ft | 468 kts | 294° |
| 2026-05-07 15:25 | 38.19989 | 27.34810 | 36000 ft | 468 kts | 294° |
| 2026-05-07 15:25 | 38.22171 | 27.28491 | 36000 ft | 468 kts | 294° |
| 2026-05-07 15:26 | 38.24785 | 27.20897 | 36001 ft | 469 kts | 293° |
| 2026-05-07 15:26 | 38.27396 | 27.13287 | 36002 ft | 469 kts | 293° |
| 2026-05-07 15:27 | 38.30006 | 27.05675 | 35997 ft | 470 kts | 295° |
| 2026-05-07 15:27 | 38.33542 | 26.98742 | 36001 ft | 471 kts | 311° |
| 2026-05-07 15:28 | 38.38377 | 26.93110 | 36007 ft | 472 kts | 319° |
| 2026-05-07 15:28 | 38.43372 | 26.87735 | 35987 ft | 469 kts | 319° |
| 2026-05-07 15:29 | 38.48320 | 26.82334 | 36003 ft | 468 kts | 319° |
| 2026-05-07 15:29 | 38.53232 | 26.76897 | 36001 ft | 468 kts | 319° |
| 2026-05-07 15:30 | 38.58146 | 26.71429 | 36003 ft | 468 kts | 319° |
| 2026-05-07 15:30 | 38.63039 | 26.65976 | 36000 ft | 468 kts | 319° |
| 2026-05-07 15:31 | 38.67960 | 26.60486 | 36000 ft | 468 kts | 319° |
| 2026-05-07 15:31 | 38.74774 | 26.52865 | 36004 ft | 469 kts | 319° |
| 2026-05-07 15:32 | 38.84603 | 26.41847 | 36005 ft | 469 kts | 319° |
| 2026-05-07 15:32 | 38.92582 | 26.33058 | 35998 ft | 469 kts | 319° |
| 2026-05-07 15:33 | 38.97535 | 26.27605 | 36001 ft | 469 kts | 319° |
| 2026-05-07 15:33 | 39.02502 | 26.22115 | 36000 ft | 469 kts | 319° |
| 2026-05-07 15:34 | 39.07413 | 26.16669 | 36001 ft | 469 kts | 319° |
| 2026-05-07 15:34 | 39.12387 | 26.11141 | 36001 ft | 469 kts | 319° |
| 2026-05-07 15:35 | 39.17306 | 26.05665 | 35998 ft | 470 kts | 319° |
| 2026-05-07 15:35 | 39.22257 | 26.00143 | 36010 ft | 471 kts | 319° |
| 2026-05-07 15:36 | 39.27196 | 25.94624 | 35999 ft | 471 kts | 319° |
| 2026-05-07 15:36 | 39.32140 | 25.89088 | 35997 ft | 469 kts | 319° |
| 2026-05-07 15:37 | 39.37058 | 25.83571 | 35998 ft | 468 kts | 319° |
| 2026-05-07 15:37 | 39.42001 | 25.78014 | 36000 ft | 468 kts | 319° |
| 2026-05-07 15:38 | 39.46894 | 25.72504 | 36002 ft | 468 kts | 319° |
| 2026-05-07 15:38 | 39.51796 | 25.66972 | 36000 ft | 468 kts | 319° |
| 2026-05-07 15:39 | 39.56702 | 25.61425 | 36000 ft | 468 kts | 319° |
| 2026-05-07 15:39 | 39.61591 | 25.55887 | 36003 ft | 468 kts | 319° |
| 2026-05-07 15:40 | 39.66489 | 25.50328 | 36003 ft | 468 kts | 319° |
| 2026-05-07 15:40 | 39.71395 | 25.44748 | 36002 ft | 468 kts | 319° |
| 2026-05-07 15:41 | 39.76287 | 25.39174 | 36000 ft | 469 kts | 319° |
| 2026-05-07 15:41 | 39.81204 | 25.33560 | 36000 ft | 469 kts | 318° |
| 2026-05-07 15:42 | 39.86088 | 25.27973 | 36000 ft | 469 kts | 318° |
| 2026-05-07 15:42 | 39.90982 | 25.22363 | 36000 ft | 469 kts | 318° |
| 2026-05-07 15:43 | 39.95876 | 25.16742 | 35998 ft | 469 kts | 318° |
| 2026-05-07 15:43 | 40.00768 | 25.11112 | 36004 ft | 470 kts | 318° |
| 2026-05-07 15:44 | 40.05656 | 25.05476 | 36003 ft | 470 kts | 318° |
| 2026-05-07 15:44 | 40.10548 | 24.99823 | 36000 ft | 469 kts | 318° |
| 2026-05-07 15:45 | 40.15437 | 24.94163 | 36000 ft | 469 kts | 318° |
| 2026-05-07 15:45 | 40.20306 | 24.88514 | 36000 ft | 469 kts | 318° |
| 2026-05-07 15:46 | 40.27636 | 24.79990 | 36000 ft | 469 kts | 318° |
| 2026-05-07 15:47 | 40.32504 | 24.74314 | 36002 ft | 469 kts | 318° |
| 2026-05-07 15:47 | 40.37371 | 24.68628 | 36000 ft | 469 kts | 318° |
| 2026-05-07 15:48 | 40.42260 | 24.62905 | 36000 ft | 469 kts | 318° |
| 2026-05-07 15:48 | 40.47121 | 24.57203 | 36000 ft | 469 kts | 318° |
| 2026-05-07 15:49 | 40.51987 | 24.51484 | 36003 ft | 469 kts | 318° |
| 2026-05-07 15:49 | 40.56848 | 24.45759 | 36000 ft | 469 kts | 318° |
| 2026-05-07 15:50 | 40.61696 | 24.40037 | 36000 ft | 469 kts | 318° |
| 2026-05-07 15:50 | 40.66542 | 24.34306 | 36000 ft | 469 kts | 318° |
| 2026-05-07 15:51 | 40.71404 | 24.28546 | 36000 ft | 469 kts | 317° |
| 2026-05-07 15:51 | 40.76248 | 24.22794 | 36000 ft | 469 kts | 317° |
| 2026-05-07 15:52 | 40.81090 | 24.17032 | 36000 ft | 470 kts | 317° |
| 2026-05-07 15:52 | 40.85934 | 24.11256 | 36008 ft | 470 kts | 317° |
| 2026-05-07 15:53 | 40.90787 | 24.05458 | 35987 ft | 473 kts | 317° |
| 2026-05-07 15:53 | 40.95662 | 23.99621 | 36011 ft | 473 kts | 317° |
| 2026-05-07 15:54 | 41.00503 | 23.93813 | 35990 ft | 469 kts | 317° |
| 2026-05-07 15:54 | 41.05349 | 23.87987 | 35993 ft | 469 kts | 317° |
| 2026-05-07 15:55 | 41.10169 | 23.82181 | 36004 ft | 471 kts | 317° |
| 2026-05-07 15:55 | 41.15034 | 23.76307 | 36001 ft | 473 kts | 317° |
| 2026-05-07 15:56 | 41.19911 | 23.70407 | 36000 ft | 476 kts | 317° |
| 2026-05-07 15:56 | 41.24789 | 23.64492 | 36003 ft | 477 kts | 317° |
| 2026-05-07 15:57 | 41.29684 | 23.58546 | 36007 ft | 477 kts | 317° |
| 2026-05-07 15:57 | 41.34550 | 23.52620 | 35988 ft | 472 kts | 317° |
| 2026-05-07 15:58 | 41.39434 | 23.46756 | 35995 ft | 472 kts | 321° |
| 2026-05-07 15:58 | 41.45024 | 23.42296 | 36012 ft | 471 kts | 334° |
| 2026-05-07 15:59 | 41.50949 | 23.38531 | 36002 ft | 471 kts | 334° |
| 2026-05-07 15:59 | 41.56868 | 23.34764 | 36003 ft | 471 kts | 334° |
| 2026-05-07 16:00 | 41.62755 | 23.30944 | 36003 ft | 472 kts | 334° |
| 2026-05-07 16:00 | 41.68653 | 23.27074 | 35999 ft | 473 kts | 333° |
| 2026-05-07 16:01 | 41.74575 | 23.23174 | 36005 ft | 474 kts | 333° |
| 2026-05-07 16:01 | 41.80479 | 23.19281 | 36000 ft | 475 kts | 333° |
| 2026-05-07 16:02 | 41.86402 | 23.15368 | 36001 ft | 474 kts | 333° |
| 2026-05-07 16:02 | 41.92309 | 23.11460 | 36001 ft | 472 kts | 333° |
| 2026-05-07 16:03 | 41.98184 | 23.07564 | 35997 ft | 471 kts | 333° |
| 2026-05-07 16:03 | 42.04048 | 23.03667 | 36001 ft | 470 kts | 333° |
| 2026-05-07 16:04 | 42.09917 | 22.99759 | 35997 ft | 470 kts | 333° |
| 2026-05-07 16:04 | 42.15800 | 22.95833 | 36001 ft | 471 kts | 333° |
| 2026-05-07 16:05 | 42.21666 | 22.91911 | 36008 ft | 472 kts | 333° |
| 2026-05-07 16:05 | 42.27546 | 22.87970 | 36001 ft | 473 kts | 333° |
| 2026-05-07 16:06 | 42.33449 | 22.84006 | 35997 ft | 473 kts | 333° |
| 2026-05-07 16:06 | 42.39353 | 22.80033 | 36003 ft | 475 kts | 333° |
| 2026-05-07 16:07 | 42.45265 | 22.76047 | 36003 ft | 476 kts | 333° |
| 2026-05-07 16:07 | 42.51166 | 22.72059 | 35997 ft | 475 kts | 333° |
| 2026-05-07 16:08 | 42.57062 | 22.68066 | 36002 ft | 475 kts | 333° |
| 2026-05-07 16:08 | 42.63005 | 22.64033 | 36004 ft | 475 kts | 333° |
| 2026-05-07 16:09 | 42.68915 | 22.60013 | 36000 ft | 476 kts | 333° |
| 2026-05-07 16:09 | 42.74820 | 22.55987 | 36004 ft | 476 kts | 333° |
| 2026-05-07 16:10 | 42.80739 | 22.51944 | 36002 ft | 476 kts | 333° |
| 2026-05-07 16:10 | 42.86573 | 22.47701 | 36004 ft | 476 kts | 327° |
| 2026-05-07 16:11 | 42.92073 | 22.42696 | 36010 ft | 476 kts | 325° |
| 2026-05-07 16:11 | 42.97501 | 22.37553 | 35997 ft | 475 kts | 325° |
| 2026-05-07 16:12 | 43.02946 | 22.32448 | 36005 ft | 473 kts | 325° |
| 2026-05-07 16:12 | 43.08381 | 22.27407 | 35994 ft | 474 kts | 326° |
| 2026-05-07 16:13 | 43.13850 | 22.22347 | 35995 ft | 476 kts | 326° |
| 2026-05-07 16:13 | 43.19357 | 22.17241 | 36008 ft | 478 kts | 326° |
| 2026-05-07 16:14 | 43.24827 | 22.12157 | 35998 ft | 473 kts | 326° |
| 2026-05-07 16:14 | 43.30276 | 22.07078 | 36002 ft | 470 kts | 326° |
| 2026-05-07 16:15 | 43.35650 | 22.02059 | 35998 ft | 470 kts | 325° |
| 2026-05-07 16:15 | 43.41060 | 21.96994 | 35999 ft | 471 kts | 325° |
| 2026-05-07 16:16 | 43.46469 | 21.91919 | 36007 ft | 471 kts | 325° |
| 2026-05-07 16:16 | 43.51875 | 21.86836 | 36002 ft | 471 kts | 325° |
| 2026-05-07 16:17 | 43.57284 | 21.81739 | 36000 ft | 472 kts | 325° |
| 2026-05-07 16:17 | 43.62702 | 21.76622 | 36003 ft | 472 kts | 325° |
| 2026-05-07 16:18 | 43.68105 | 21.71507 | 36003 ft | 472 kts | 325° |
| 2026-05-07 16:18 | 43.73532 | 21.66359 | 36001 ft | 473 kts | 325° |
| 2026-05-07 16:19 | 43.78956 | 21.61202 | 36001 ft | 473 kts | 325° |
| 2026-05-07 16:19 | 43.84360 | 21.56053 | 35997 ft | 472 kts | 325° |
| 2026-05-07 16:20 | 43.89773 | 21.50883 | 35999 ft | 471 kts | 325° |
| 2026-05-07 16:20 | 43.95162 | 21.45725 | 36001 ft | 470 kts | 325° |
| 2026-05-07 16:21 | 44.00507 | 21.40598 | 36001 ft | 469 kts | 325° |
| 2026-05-07 16:21 | 44.04997 | 21.36281 | 36001 ft | 469 kts | 325° |
| 2026-05-07 16:22 | 44.10361 | 21.31114 | 36002 ft | 469 kts | 325° |
| 2026-05-07 16:22 | 44.15699 | 21.25960 | 36000 ft | 469 kts | 325° |
| 2026-05-07 16:23 | 44.21073 | 21.20760 | 36006 ft | 469 kts | 325° |
| 2026-05-07 16:23 | 44.26424 | 21.15571 | 36002 ft | 469 kts | 325° |
| 2026-05-07 16:24 | 44.31779 | 21.10366 | 36003 ft | 469 kts | 325° |
| 2026-05-07 16:24 | 44.37146 | 21.05138 | 36000 ft | 469 kts | 325° |
| 2026-05-07 16:25 | 44.42479 | 20.99930 | 36004 ft | 470 kts | 324° |
| 2026-05-07 16:25 | 44.47826 | 20.94697 | 36003 ft | 470 kts | 324° |
| 2026-05-07 16:26 | 44.53187 | 20.89439 | 35999 ft | 470 kts | 324° |
| 2026-05-07 16:26 | 44.58542 | 20.84174 | 36001 ft | 470 kts | 324° |
| 2026-05-07 16:27 | 44.63888 | 20.78906 | 36001 ft | 470 kts | 324° |
| 2026-05-07 16:27 | 44.69241 | 20.73619 | 36005 ft | 470 kts | 324° |
| 2026-05-07 16:28 | 44.74586 | 20.68328 | 36003 ft | 470 kts | 324° |
| 2026-05-07 16:28 | 44.79942 | 20.63013 | 35999 ft | 470 kts | 324° |
| 2026-05-07 16:29 | 44.85255 | 20.57729 | 36005 ft | 470 kts | 324° |
| 2026-05-07 16:29 | 44.90589 | 20.52412 | 36000 ft | 470 kts | 324° |
| 2026-05-07 16:30 | 44.95938 | 20.47067 | 36003 ft | 470 kts | 324° |
| 2026-05-07 16:30 | 45.01277 | 20.41720 | 36001 ft | 470 kts | 324° |
| 2026-05-07 16:31 | 45.06587 | 20.36390 | 36003 ft | 470 kts | 324° |
| 2026-05-07 16:31 | 45.11907 | 20.31037 | 36000 ft | 470 kts | 324° |
| 2026-05-07 16:32 | 45.17256 | 20.25643 | 36005 ft | 470 kts | 324° |
| 2026-05-07 16:32 | 45.22557 | 20.20284 | 36000 ft | 470 kts | 324° |
| 2026-05-07 16:33 | 45.27876 | 20.14896 | 36002 ft | 470 kts | 324° |
| 2026-05-07 16:33 | 45.33198 | 20.09490 | 36001 ft | 470 kts | 324° |
| 2026-05-07 16:34 | 45.38518 | 20.04074 | 36000 ft | 470 kts | 324° |
| 2026-05-07 16:34 | 45.43823 | 19.98660 | 36005 ft | 470 kts | 324° |
| 2026-05-07 16:35 | 45.49131 | 19.93231 | 36000 ft | 470 kts | 324° |
| 2026-05-07 16:35 | 45.54431 | 19.87797 | 36000 ft | 470 kts | 324° |
| 2026-05-07 16:36 | 45.59752 | 19.82329 | 36000 ft | 470 kts | 324° |
| 2026-05-07 16:36 | 45.65053 | 19.76867 | 36002 ft | 470 kts | 324° |
| 2026-05-07 16:37 | 45.70341 | 19.71407 | 36000 ft | 470 kts | 324° |
| 2026-05-07 16:37 | 45.75628 | 19.65933 | 36000 ft | 470 kts | 324° |
| 2026-05-07 16:38 | 45.80948 | 19.60414 | 36002 ft | 470 kts | 324° |
| 2026-05-07 16:38 | 45.86219 | 19.54931 | 36002 ft | 470 kts | 324° |
| 2026-05-07 16:39 | 45.91509 | 19.49416 | 36000 ft | 470 kts | 323° |
| 2026-05-07 16:39 | 45.96796 | 19.43888 | 36005 ft | 470 kts | 323° |
| 2026-05-07 16:40 | 46.02073 | 19.38361 | 36002 ft | 470 kts | 323° |
| 2026-05-07 16:40 | 46.07285 | 19.32688 | 35998 ft | 470 kts | 321° |
| 2026-05-07 16:41 | 46.12299 | 19.26637 | 36001 ft | 470 kts | 319° |
| 2026-05-07 16:41 | 46.17275 | 19.20516 | 35999 ft | 470 kts | 319° |
| 2026-05-07 16:42 | 46.22278 | 19.14406 | 36001 ft | 470 kts | 320° |
| 2026-05-07 16:42 | 46.27268 | 19.08342 | 36000 ft | 470 kts | 320° |
| 2026-05-07 16:43 | 46.32260 | 19.02275 | 36002 ft | 470 kts | 320° |
| 2026-05-07 16:43 | 46.37262 | 18.96181 | 36004 ft | 470 kts | 320° |
| 2026-05-07 16:44 | 46.42272 | 18.90059 | 36007 ft | 470 kts | 320° |
| 2026-05-07 16:44 | 46.47262 | 18.83947 | 36002 ft | 470 kts | 320° |
| 2026-05-07 16:45 | 46.52265 | 18.77803 | 36003 ft | 470 kts | 319° |
| 2026-05-07 16:45 | 46.57249 | 18.71666 | 36000 ft | 470 kts | 319° |
| 2026-05-07 16:46 | 46.62220 | 18.65537 | 36257 ft | 466 kts | 315° |
| 2026-05-07 16:46 | 46.64659 | 18.62525 | 36097 ft | 458 kts | 314° |
| 2026-05-07 16:46 | 46.67086 | 18.59524 | 36048 ft | 453 kts | 314° |
| 2026-05-07 16:47 | 46.71860 | 18.53599 | 36007 ft | 449 kts | 314° |
| 2026-05-07 16:47 | 46.76599 | 18.47701 | 35998 ft | 448 kts | 314° |
| 2026-05-07 16:48 | 46.81323 | 18.41809 | 35995 ft | 447 kts | 314° |
| 2026-05-07 16:48 | 46.86052 | 18.35899 | 35996 ft | 448 kts | 314° |
| 2026-05-07 16:49 | 46.90789 | 18.29965 | 35992 ft | 449 kts | 314° |
| 2026-05-07 16:49 | 46.95528 | 18.24016 | 35990 ft | 451 kts | 314° |
| 2026-05-07 16:50 | 47.00298 | 18.18012 | 35989 ft | 452 kts | 314° |
| 2026-05-07 16:50 | 47.05072 | 18.11991 | 36001 ft | 453 kts | 314° |
| 2026-05-07 16:51 | 47.09850 | 18.05949 | 35977 ft | 454 kts | 314° |
| 2026-05-07 16:51 | 47.14632 | 17.99887 | 35984 ft | 454 kts | 314° |
| 2026-05-07 16:52 | 47.19393 | 17.93836 | 35984 ft | 455 kts | 314° |
| 2026-05-07 16:52 | 47.24197 | 17.87717 | 35973 ft | 455 kts | 313° |
| 2026-05-07 16:53 | 47.28957 | 17.81637 | 35971 ft | 455 kts | 313° |
| 2026-05-07 16:53 | 47.33740 | 17.75515 | 36021 ft | 454 kts | 313° |
| 2026-05-07 16:53 | 47.36101 | 17.72486 | 36215 ft | 453 kts | 313° |
| 2026-05-07 16:54 | 47.38483 | 17.69429 | 36482 ft | 450 kts | 313° |
| 2026-05-07 16:54 | 47.40846 | 17.66390 | 36740 ft | 448 kts | 313° |
| 2026-05-07 16:54 | 47.43179 | 17.63387 | 36963 ft | 447 kts | 313° |
| 2026-05-07 16:54 | 47.45535 | 17.60350 | 37142 ft | 448 kts | 313° |
| 2026-05-07 16:55 | 47.47860 | 17.57347 | 37301 ft | 448 kts | 313° |
| 2026-05-07 16:55 | 47.50218 | 17.54299 | 37480 ft | 448 kts | 313° |
| 2026-05-07 16:55 | 47.52568 | 17.51257 | 37664 ft | 447 kts | 313° |
| 2026-05-07 16:55 | 47.54890 | 17.48248 | 37826 ft | 447 kts | 313° |
| 2026-05-07 16:56 | 47.57242 | 17.45199 | 37955 ft | 447 kts | 313° |
| 2026-05-07 16:56 | 47.64267 | 17.36059 | 37971 ft | 452 kts | 313° |
| 2026-05-07 16:57 | 47.69009 | 17.29874 | 37976 ft | 456 kts | 313° |
| 2026-05-07 16:57 | 47.73804 | 17.23605 | 37965 ft | 458 kts | 313° |
| 2026-05-07 16:58 | 47.78568 | 17.17360 | 37962 ft | 458 kts | 313° |
| 2026-05-07 16:58 | 47.83347 | 17.11080 | 37968 ft | 458 kts | 314° |
| 2026-05-07 16:59 | 47.88242 | 17.05062 | 37969 ft | 460 kts | 316° |
| 2026-05-07 16:59 | 47.93259 | 16.99168 | 37972 ft | 459 kts | 316° |
| 2026-05-07 17:00 | 47.98259 | 16.93249 | 37968 ft | 458 kts | 316° |
| 2026-05-07 17:00 | 48.03248 | 16.87269 | 37982 ft | 458 kts | 316° |
| 2026-05-07 17:01 | 48.08192 | 16.81304 | 37985 ft | 458 kts | 316° |
| 2026-05-07 17:01 | 48.13141 | 16.75316 | 38000 ft | 458 kts | 316° |
| 2026-05-07 17:02 | 48.18083 | 16.69323 | 37995 ft | 458 kts | 316° |
| 2026-05-07 17:02 | 48.23019 | 16.63324 | 37992 ft | 457 kts | 315° |
| 2026-05-07 17:03 | 48.28528 | 16.56611 | 37990 ft | 457 kts | 315° |
| 2026-05-07 17:03 | 48.38359 | 16.44581 | 37977 ft | 455 kts | 315° |
| 2026-05-07 17:04 | 48.48983 | 16.31511 | 37959 ft | 455 kts | 315° |
| 2026-05-07 17:04 | 48.68500 | 16.07313 | 37965 ft | 454 kts | 315° |
| 2026-05-07 17:05 | 48.80128 | 15.92770 | 37947 ft | 454 kts | 315° |
| 2026-05-07 17:05 | 48.84965 | 15.86694 | 38083 ft | 454 kts | 314° |
| 2026-05-07 17:06 | 48.90045 | 15.80787 | 37828 ft | 465 kts | 321° |
| 2026-05-07 17:06 | 48.95508 | 15.75533 | 37948 ft | 462 kts | 322° |
| 2026-05-07 17:07 | 49.00957 | 15.70394 | 37950 ft | 461 kts | 322° |
| 2026-05-07 17:07 | 49.06374 | 15.65191 | 37956 ft | 460 kts | 322° |
| 2026-05-07 17:08 | 49.11758 | 15.59949 | 37951 ft | 460 kts | 321° |
| 2026-05-07 17:08 | 49.17156 | 15.54663 | 37959 ft | 461 kts | 321° |
| 2026-05-07 17:09 | 49.22539 | 15.49377 | 37963 ft | 462 kts | 321° |
| 2026-05-07 17:09 | 49.27954 | 15.44048 | 37960 ft | 462 kts | 321° |
| 2026-05-07 17:10 | 49.33353 | 15.38723 | 37959 ft | 463 kts | 321° |
| 2026-05-07 17:10 | 49.38773 | 15.33363 | 37963 ft | 464 kts | 321° |
| 2026-05-07 17:11 | 49.44192 | 15.27991 | 37965 ft | 465 kts | 321° |
| 2026-05-07 17:11 | 49.49639 | 15.22575 | 37960 ft | 465 kts | 322° |
| 2026-05-07 17:12 | 49.55062 | 15.17168 | 37960 ft | 466 kts | 322° |
| 2026-05-07 17:12 | 49.60502 | 15.11732 | 37968 ft | 466 kts | 322° |
| 2026-05-07 17:13 | 49.65936 | 15.06285 | 37971 ft | 467 kts | 322° |
| 2026-05-07 17:13 | 49.71378 | 15.00815 | 37972 ft | 468 kts | 322° |
| 2026-05-07 17:14 | 49.76827 | 14.95324 | 37971 ft | 469 kts | 322° |
| 2026-05-07 17:14 | 49.82292 | 14.89801 | 37968 ft | 470 kts | 322° |
| 2026-05-07 17:15 | 49.87771 | 14.84249 | 37978 ft | 471 kts | 321° |
| 2026-05-07 17:15 | 49.93266 | 14.78665 | 37980 ft | 472 kts | 322° |
| 2026-05-07 17:16 | 49.98768 | 14.73060 | 37992 ft | 473 kts | 322° |
| 2026-05-07 17:16 | 50.03356 | 14.68374 | 37988 ft | 473 kts | 322° |
| 2026-05-07 17:17 | 50.08852 | 14.62746 | 37992 ft | 474 kts | 322° |
| 2026-05-07 17:17 | 50.14354 | 14.57095 | 37998 ft | 474 kts | 322° |
| 2026-05-07 17:18 | 50.19851 | 14.51435 | 38001 ft | 474 kts | 322° |
| 2026-05-07 17:18 | 50.25346 | 14.45760 | 37992 ft | 474 kts | 322° |
| 2026-05-07 17:19 | 50.30866 | 14.40042 | 37995 ft | 474 kts | 322° |
| 2026-05-07 17:19 | 50.36352 | 14.34345 | 37994 ft | 474 kts | 322° |
| 2026-05-07 17:20 | 50.41835 | 14.28635 | 37999 ft | 474 kts | 322° |
| 2026-05-07 17:20 | 50.47340 | 14.22884 | 37814 ft | 474 kts | 322° |
| 2026-05-07 17:21 | 50.52797 | 14.17168 | 37818 ft | 474 kts | 322° |
| 2026-05-07 17:21 | 50.58277 | 14.11411 | 37823 ft | 474 kts | 322° |
| 2026-05-07 17:22 | 50.61039 | 14.08504 | 38061 ft | 474 kts | 323° |
| 2026-05-07 17:22 | 50.63761 | 14.05633 | 38020 ft | 474 kts | 323° |
| 2026-05-07 17:22 | 50.69241 | 13.99844 | 38019 ft | 474 kts | 323° |
| 2026-05-07 17:23 | 50.74691 | 13.94069 | 38022 ft | 473 kts | 323° |
| 2026-05-07 17:23 | 50.80175 | 13.88244 | 38025 ft | 473 kts | 323° |
| 2026-05-07 17:24 | 50.85589 | 13.82405 | 38034 ft | 472 kts | 323° |
| 2026-05-07 17:24 | 50.90968 | 13.76533 | 38039 ft | 471 kts | 323° |
| 2026-05-07 17:25 | 50.96373 | 13.70619 | 38047 ft | 471 kts | 323° |
| 2026-05-07 17:25 | 51.01755 | 13.64721 | 38046 ft | 470 kts | 323° |
| 2026-05-07 17:26 | 51.07146 | 13.58801 | 38043 ft | 471 kts | 323° |
| 2026-05-07 17:26 | 51.12534 | 13.52868 | 38048 ft | 470 kts | 323° |
| 2026-05-07 17:27 | 51.17909 | 13.46932 | 38050 ft | 470 kts | 323° |
| 2026-05-07 17:27 | 51.23248 | 13.41017 | 38044 ft | 470 kts | 323° |
| 2026-05-07 17:28 | 51.28644 | 13.35023 | 38049 ft | 470 kts | 323° |
| 2026-05-07 17:28 | 51.33962 | 13.29098 | 38055 ft | 470 kts | 323° |
| 2026-05-07 17:29 | 51.39318 | 13.23113 | 38057 ft | 470 kts | 323° |
| 2026-05-07 17:29 | 51.44695 | 13.17087 | 38062 ft | 470 kts | 323° |
| 2026-05-07 17:30 | 51.50039 | 13.11079 | 38066 ft | 470 kts | 323° |
| 2026-05-07 17:30 | 51.55385 | 13.05054 | 38073 ft | 470 kts | 323° |
| 2026-05-07 17:31 | 51.60777 | 12.99133 | 38071 ft | 470 kts | 325° |
| 2026-05-07 17:31 | 51.66296 | 12.93499 | 38075 ft | 470 kts | 326° |
| 2026-05-07 17:32 | 51.71838 | 12.87863 | 38073 ft | 470 kts | 326° |
| 2026-05-07 17:32 | 51.77346 | 12.82183 | 38074 ft | 470 kts | 325° |
| 2026-05-07 17:33 | 51.82843 | 12.76464 | 38068 ft | 470 kts | 325° |
| 2026-05-07 17:33 | 51.88297 | 12.70767 | 38072 ft | 470 kts | 325° |
| 2026-05-07 17:34 | 51.93816 | 12.64985 | 38071 ft | 470 kts | 325° |
| 2026-05-07 17:34 | 51.99302 | 12.59223 | 38064 ft | 470 kts | 325° |
| 2026-05-07 17:35 | 52.04775 | 12.53459 | 38068 ft | 470 kts | 325° |
| 2026-05-07 17:35 | 52.10237 | 12.47688 | 38070 ft | 469 kts | 325° |
| 2026-05-07 17:36 | 52.15705 | 12.41894 | 38073 ft | 469 kts | 325° |
| 2026-05-07 17:36 | 52.21158 | 12.36099 | 38074 ft | 469 kts | 325° |
| 2026-05-07 17:37 | 52.26594 | 12.30307 | 38042 ft | 455 kts | 325° |
| 2026-05-07 17:37 | 52.29221 | 12.27503 | 37952 ft | 444 kts | 325° |
| 2026-05-07 17:37 | 52.31765 | 12.24784 | 37510 ft | 440 kts | 325° |
| 2026-05-07 17:38 | 52.34337 | 12.22027 | 36914 ft | 440 kts | 325° |
| 2026-05-07 17:38 | 52.36923 | 12.19250 | 36289 ft | 442 kts | 325° |
| 2026-05-07 17:38 | 52.39476 | 12.16505 | 35691 ft | 443 kts | 326° |
| 2026-05-07 17:38 | 52.42034 | 12.13752 | 35114 ft | 443 kts | 326° |
| 2026-05-07 17:39 | 52.44621 | 12.10965 | 34561 ft | 444 kts | 326° |
| 2026-05-07 17:39 | 52.47203 | 12.08179 | 34026 ft | 443 kts | 326° |
| 2026-05-07 17:39 | 52.49785 | 12.05389 | 33378 ft | 443 kts | 326° |
| 2026-05-07 17:39 | 52.52337 | 12.02628 | 32716 ft | 443 kts | 326° |
| 2026-05-07 17:40 | 52.54915 | 11.99834 | 32025 ft | 444 kts | 326° |
| 2026-05-07 17:40 | 52.57523 | 11.97004 | 31033 ft | 451 kts | 326° |
| 2026-05-07 17:40 | 52.60143 | 11.94158 | 29984 ft | 460 kts | 326° |
| 2026-05-07 17:40 | 52.62812 | 11.91254 | 29183 ft | 459 kts | 326° |
| 2026-05-07 17:41 | 52.65422 | 11.88255 | 28631 ft | 452 kts | 323° |
| 2026-05-07 17:41 | 52.67900 | 11.85176 | 28097 ft | 446 kts | 322° |
| 2026-05-07 17:41 | 52.70342 | 11.82044 | 27515 ft | 441 kts | 321° |
| 2026-05-07 17:41 | 52.72735 | 11.78956 | 27183 ft | 438 kts | 321° |
| 2026-05-07 17:42 | 52.75176 | 11.75818 | 27119 ft | 443 kts | 321° |
| 2026-05-07 17:42 | 52.77584 | 11.72742 | 27054 ft | 442 kts | 322° |
| 2026-05-07 17:42 | 52.80011 | 11.69655 | 26911 ft | 433 kts | 322° |
| 2026-05-07 17:42 | 52.82355 | 11.66678 | 26459 ft | 426 kts | 322° |
| 2026-05-07 17:43 | 52.84716 | 11.63679 | 25832 ft | 425 kts | 322° |
| 2026-05-07 17:43 | 52.87067 | 11.60687 | 25264 ft | 422 kts | 322° |
| 2026-05-07 17:43 | 52.89336 | 11.57796 | 25201 ft | 407 kts | 322° |
| 2026-05-07 17:43 | 52.91551 | 11.54970 | 25042 ft | 395 kts | 322° |
| 2026-05-07 17:44 | 52.93698 | 11.52225 | 24672 ft | 390 kts | 321° |
| 2026-05-07 17:44 | 52.95861 | 11.49449 | 24163 ft | 389 kts | 321° |
| 2026-05-07 17:44 | 52.97976 | 11.46725 | 23685 ft | 388 kts | 321° |
| 2026-05-07 17:44 | 53.00105 | 11.43981 | 23183 ft | 385 kts | 321° |
| 2026-05-07 17:45 | 53.02220 | 11.41254 | 22718 ft | 382 kts | 321° |
| 2026-05-07 17:45 | 53.04313 | 11.38552 | 22236 ft | 379 kts | 321° |
| 2026-05-07 17:45 | 53.06367 | 11.35897 | 21773 ft | 376 kts | 321° |
| 2026-05-07 17:45 | 53.08436 | 11.33222 | 21303 ft | 374 kts | 321° |
| 2026-05-07 17:46 | 53.10487 | 11.30567 | 20831 ft | 372 kts | 321° |
| 2026-05-07 17:46 | 53.12504 | 11.27978 | 20389 ft | 369 kts | 322° |
| 2026-05-07 17:46 | 53.14597 | 11.25484 | 19960 ft | 367 kts | 324° |
| 2026-05-07 17:46 | 53.16708 | 11.23065 | 19509 ft | 365 kts | 325° |
| 2026-05-07 17:47 | 53.18782 | 11.20711 | 19091 ft | 363 kts | 325° |
| 2026-05-07 17:47 | 53.20874 | 11.18331 | 18670 ft | 361 kts | 324° |
| 2026-05-07 17:47 | 53.22942 | 11.15966 | 18250 ft | 359 kts | 324° |
| 2026-05-07 17:47 | 53.24972 | 11.13630 | 17797 ft | 356 kts | 324° |
| 2026-05-07 17:48 | 53.26998 | 11.11227 | 17338 ft | 354 kts | 320° |
| 2026-05-07 17:48 | 53.28731 | 11.08316 | 16878 ft | 351 kts | 310° |
| 2026-05-07 17:48 | 53.30300 | 11.05222 | 16446 ft | 349 kts | 309° |
| 2026-05-07 17:48 | 53.31852 | 11.02092 | 16005 ft | 348 kts | 309° |
| 2026-05-07 17:49 | 53.33377 | 10.99008 | 15578 ft | 346 kts | 309° |
| 2026-05-07 17:49 | 53.34809 | 10.95751 | 15136 ft | 344 kts | 298° |
| 2026-05-07 17:49 | 53.35633 | 10.92054 | 14721 ft | 342 kts | 281° |
| 2026-05-07 17:49 | 53.35882 | 10.88122 | 14340 ft | 340 kts | 273° |
| 2026-05-07 17:50 | 53.35993 | 10.84152 | 13919 ft | 339 kts | 272° |
| 2026-05-07 17:50 | 53.36096 | 10.80200 | 13458 ft | 338 kts | 272° |
| 2026-05-07 17:50 | 53.36199 | 10.76333 | 13268 ft | 327 kts | 272° |
| 2026-05-07 17:50 | 53.36301 | 10.72645 | 13123 ft | 310 kts | 273° |
| 2026-05-07 17:51 | 53.36402 | 10.69101 | 12880 ft | 300 kts | 273° |
| 2026-05-07 17:51 | 53.36501 | 10.65649 | 12561 ft | 299 kts | 273° |
| 2026-05-07 17:51 | 53.36603 | 10.62168 | 12252 ft | 297 kts | 273° |
| 2026-05-07 17:51 | 53.36704 | 10.58711 | 11946 ft | 295 kts | 273° |
| 2026-05-07 17:52 | 53.36803 | 10.55315 | 11620 ft | 294 kts | 273° |
| 2026-05-07 17:52 | 53.36902 | 10.51879 | 11302 ft | 293 kts | 273° |
| 2026-05-07 17:52 | 53.37000 | 10.48465 | 10991 ft | 292 kts | 273° |
| 2026-05-07 17:52 | 53.37096 | 10.45107 | 10688 ft | 291 kts | 273° |
| 2026-05-07 17:53 | 53.37191 | 10.41716 | 10386 ft | 290 kts | 273° |
| 2026-05-07 17:53 | 53.37286 | 10.38341 | 10086 ft | 289 kts | 273° |
| 2026-05-07 17:53 | 53.37379 | 10.34985 | 9626 ft | 292 kts | 273° |
| 2026-05-07 17:53 | 53.37473 | 10.31565 | 9156 ft | 296 kts | 273° |
| 2026-05-07 17:54 | 53.37567 | 10.28096 | 8685 ft | 299 kts | 273° |
| 2026-05-07 17:54 | 53.37659 | 10.24657 | 8213 ft | 296 kts | 273° |
| 2026-05-07 17:54 | 53.37750 | 10.21222 | 7750 ft | 292 kts | 273° |
| 2026-05-07 17:54 | 53.37838 | 10.17870 | 7293 ft | 288 kts | 273° |
| 2026-05-07 17:55 | 53.37925 | 10.14525 | 6842 ft | 285 kts | 273° |
| 2026-05-07 17:55 | 53.38010 | 10.11212 | 6392 ft | 282 kts | 273° |
| 2026-05-07 17:55 | 53.38093 | 10.07943 | 5916 ft | 280 kts | 273° |
| 2026-05-07 17:55 | 53.38174 | 10.04736 | 5452 ft | 277 kts | 273° |
| 2026-05-07 17:56 | 53.38255 | 10.01505 | 4986 ft | 275 kts | 273° |
| 2026-05-07 17:56 | 53.38514 | 9.98362 | 4489 ft | 273 kts | 293° |
| 2026-05-07 17:56 | 53.39451 | 9.95619 | 4054 ft | 268 kts | 304° |
| 2026-05-07 17:56 | 53.40448 | 9.93010 | 3585 ft | 267 kts | 304° |
| 2026-05-07 17:57 | 53.41451 | 9.90387 | 3130 ft | 266 kts | 304° |
| 2026-05-07 17:57 | 53.42115 | 9.88651 | 2827 ft | 265 kts | 304° |
| 2026-05-07 17:57 | 53.43562 | 9.85401 | 2508 ft | 252 kts | 313° |
| 2026-05-07 17:57 | 53.44680 | 9.83298 | 2482 ft | 236 kts | 314° |
| 2026-05-07 17:58 | 53.45768 | 9.81274 | 2478 ft | 229 kts | 314° |
| 2026-05-07 17:58 | 53.46834 | 9.79295 | 2490 ft | 232 kts | 317° |
| 2026-05-07 17:58 | 53.48142 | 9.77720 | 2496 ft | 227 kts | 332° |
| 2026-05-07 17:58 | 53.49505 | 9.76462 | 2503 ft | 217 kts | 333° |
| 2026-05-07 17:59 | 53.51997 | 9.75081 | 2472 ft | 201 kts | 19° |
| 2026-05-07 17:59 | 53.53079 | 9.76418 | 2482 ft | 194 kts | 63° |
| 2026-05-07 17:59 | 53.53468 | 9.78554 | 2493 ft | 187 kts | 71° |
| 2026-05-07 18:00 | 53.54127 | 9.80253 | 2493 ft | 164 kts | 54° |
| 2026-05-07 18:00 | 53.54756 | 9.81795 | 2355 ft | 157 kts | 58° |
| 2026-05-07 18:00 | 53.55392 | 9.83249 | 2153 ft | 152 kts | 53° |
| 2026-05-07 18:00 | 53.56032 | 9.84584 | 1972 ft | 141 kts | 53° |
| 2026-05-07 18:01 | 53.56643 | 9.85835 | 1762 ft | 137 kts | 52° |
| 2026-05-07 18:01 | 53.57248 | 9.87066 | 1556 ft | 134 kts | 52° |
| 2026-05-07 18:01 | 53.57846 | 9.88284 | 1391 ft | 136 kts | 52° |
| 2026-05-07 18:01 | 53.58445 | 9.89503 | 1178 ft | 135 kts | 51° |
| 2026-05-07 18:02 | 53.59641 | 9.91932 | 809 ft | 137 kts | 51° |
| 2026-05-07 18:02 | 53.60247 | 9.93164 | 602 ft | 135 kts | 52° |
| 2026-05-07 18:02 | 53.60835 | 9.94361 | 452 ft | 134 kts | 51° |
| 2026-05-07 18:03 | 53.61434 | 9.95574 | 265 ft | 134 kts | 51° |
| 2026-05-07 18:03 | 53.62030 | 9.96785 | 82 ft | 133 kts | 50° |
| 2026-05-07 18:03 | 53.62593 | 9.97913 | 41 ft | 114 kts | 50° |
| 2026-05-07 18:03 | 53.63019 | 9.98787 | 44 ft | 75 kts | 50° |
| 2026-05-07 18:04 | 53.63257 | 9.99288 | 46 ft | 38 kts | 49° |
| 2026-05-07 18:04 | 53.63283 | 9.99599 | 45 ft | 12 kts | 99° |
| 2026-05-07 18:04 | 53.63280 | 9.99634 | 47 ft | 0 kts | 99° |
| 2026-05-07 18:06 | 53.63277 | 9.99660 | 47 ft | 9 kts | 99° |
| 2026-05-07 18:06 | 53.63274 | 9.99698 | 47 ft | 0 kts | 95° |
| 2026-05-07 18:07 | 53.63274 | 9.99700 | 47 ft | 2 kts | 95° |
| 2026-05-07 18:07 | 53.63292 | 9.99789 | 46 ft | 10 kts | 50° |
| 2026-05-07 18:07 | 53.63311 | 9.99821 | 47 ft | 2 kts | 51° |
| 2026-05-07 18:08 | 53.63301 | 9.99882 | 46 ft | 6 kts | 139° |
| 2026-05-07 18:08 | 53.63272 | 9.99922 | 47 ft | 1 kts | 140° |
| 2026-05-07 18:08 | 53.63267 | 9.99930 | 47 ft | 2 kts | 140° |
| 2026-05-07 18:08 | 53.63266 | 9.99930 | 47 ft | 0 kts | 140° |